sensor_id;sensor_type;location;lat;lon;timestamp;P1;durP1;ratioP1;P2;durP2;ratioP2
25127;SDS011;13107;51.304;6.866;2023-03-18T00:03:37;5.47;;;2.60;;
25127;SDS011;13107;51.304;6.866;2023-03-18T00:07:39;6.93;;;2.40;;
25127;SDS011;13107;51.304;6.866;2023-03-18T00:11:41;5.97;;;2.65;;
25127;SDS011;13107;51.304;6.866;2023-03-18T00:15:43;7.65;;;2.95;;
25127;SDS011;13107;51.304;6.866;2023-03-18T00:19:45;4.53;;;2.45;;
25127;SDS011;13107;51.304;6.866;2023-03-18T00:23:47;7.68;;;2.75;;
25127;SDS011;13107;51.304;6.866;2023-03-18T00:27:50;6.22;;;2.87;;
25127;SDS011;13107;51.304;6.866;2023-03-18T00:31:53;6.75;;;3.00;;
25127;SDS011;13107;51.304;6.866;2023-03-18T00:35:54;11.75;;;3.10;;
25127;SDS011;13107;51.304;6.866;2023-03-18T00:39:59;9.60;;;2.72;;
25127;SDS011;13107;51.304;6.866;2023-03-18T00:44:06;7.50;;;2.78;;
25127;SDS011;13107;51.304;6.866;2023-03-18T00:48:08;8.15;;;2.78;;
25127;SDS011;13107;51.304;6.866;2023-03-18T00:52:11;9.52;;;3.28;;
25127;SDS011;13107;51.304;6.866;2023-03-18T00:56:13;6.80;;;3.03;;
25127;SDS011;13107;51.304;6.866;2023-03-18T01:00:16;8.70;;;3.40;;
25127;SDS011;13107;51.304;6.866;2023-03-18T01:04:19;6.87;;;3.12;;
25127;SDS011;13107;51.304;6.866;2023-03-18T01:08:21;5.93;;;3.12;;
25127;SDS011;13107;51.304;6.866;2023-03-18T01:12:23;8.27;;;2.80;;
25127;SDS011;13107;51.304;6.866;2023-03-18T01:16:25;9.43;;;3.50;;
25127;SDS011;13107;51.304;6.866;2023-03-18T01:20:28;9.05;;;3.28;;
25127;SDS011;13107;51.304;6.866;2023-03-18T01:24:30;7.40;;;3.22;;
25127;SDS011;13107;51.304;6.866;2023-03-18T01:28:32;8.90;;;2.90;;
25127;SDS011;13107;51.304;6.866;2023-03-18T01:32:34;6.97;;;3.05;;
25127;SDS011;13107;51.304;6.866;2023-03-18T01:36:36;8.30;;;3.42;;
25127;SDS011;13107;51.304;6.866;2023-03-18T01:40:38;6.75;;;3.20;;
25127;SDS011;13107;51.304;6.866;2023-03-18T01:44:43;9.23;;;3.45;;
25127;SDS011;13107;51.304;6.866;2023-03-18T01:48:46;10.98;;;3.12;;
25127;SDS011;13107;51.304;6.866;2023-03-18T01:52:51;6.25;;;2.97;;
25127;SDS011;13107;51.304;6.866;2023-03-18T01:56:59;4.78;;;2.90;;
25127;SDS011;13107;51.304;6.866;2023-03-18T02:05:26;10.15;;;3.37;;
25127;SDS011;13107;51.304;6.866;2023-03-18T02:09:30;7.93;;;3.75;;
25127;SDS011;13107;51.304;6.866;2023-03-18T02:13:33;9.65;;;3.75;;
25127;SDS011;13107;51.304;6.866;2023-03-18T02:17:40;12.05;;;3.97;;
25127;SDS011;13107;51.304;6.866;2023-03-18T02:21:51;8.00;;;3.50;;
25127;SDS011;13107;51.304;6.866;2023-03-18T02:30:13;11.50;;;4.28;;
25127;SDS011;13107;51.304;6.866;2023-03-18T02:34:19;11.05;;;4.12;;
25127;SDS011;13107;51.304;6.866;2023-03-18T02:38:24;9.90;;;4.53;;
25127;SDS011;13107;51.304;6.866;2023-03-18T02:42:27;6.07;;;3.80;;
25127;SDS011;13107;51.304;6.866;2023-03-18T02:50:55;9.75;;;4.65;;
25127;SDS011;13107;51.304;6.866;2023-03-18T02:54:57;9.00;;;4.32;;
25127;SDS011;13107;51.304;6.866;2023-03-18T02:58:59;7.28;;;4.30;;
25127;SDS011;13107;51.304;6.866;2023-03-18T03:03:01;10.35;;;4.95;;
25127;SDS011;13107;51.304;6.866;2023-03-18T03:07:04;10.65;;;4.45;;
25127;SDS011;13107;51.304;6.866;2023-03-18T03:11:05;9.82;;;4.85;;
25127;SDS011;13107;51.304;6.866;2023-03-18T03:15:08;9.70;;;5.28;;
25127;SDS011;13107;51.304;6.866;2023-03-18T03:19:10;9.50;;;5.20;;
25127;SDS011;13107;51.304;6.866;2023-03-18T03:23:13;10.90;;;4.65;;
25127;SDS011;13107;51.304;6.866;2023-03-18T03:27:15;9.68;;;5.47;;
25127;SDS011;13107;51.304;6.866;2023-03-18T03:31:17;8.23;;;5.07;;
25127;SDS011;13107;51.304;6.866;2023-03-18T03:35:19;10.73;;;5.25;;
25127;SDS011;13107;51.304;6.866;2023-03-18T03:39:22;11.57;;;5.12;;
25127;SDS011;13107;51.304;6.866;2023-03-18T03:43:24;7.30;;;5.65;;
25127;SDS011;13107;51.304;6.866;2023-03-18T03:47:25;10.05;;;5.75;;
25127;SDS011;13107;51.304;6.866;2023-03-18T03:51:27;10.30;;;6.22;;
25127;SDS011;13107;51.304;6.866;2023-03-18T03:55:29;10.30;;;5.72;;
25127;SDS011;13107;51.304;6.866;2023-03-18T03:59:31;16.62;;;6.43;;
25127;SDS011;13107;51.304;6.866;2023-03-18T04:03:33;15.35;;;6.53;;
25127;SDS011;13107;51.304;6.866;2023-03-18T04:07:35;11.02;;;5.62;;
25127;SDS011;13107;51.304;6.866;2023-03-18T04:11:37;12.77;;;6.55;;
25127;SDS011;13107;51.304;6.866;2023-03-18T04:15:39;12.85;;;6.75;;
25127;SDS011;13107;51.304;6.866;2023-03-18T04:19:41;8.27;;;6.62;;
25127;SDS011;13107;51.304;6.866;2023-03-18T04:23:42;11.90;;;6.28;;
25127;SDS011;13107;51.304;6.866;2023-03-18T04:27:44;11.65;;;6.62;;
25127;SDS011;13107;51.304;6.866;2023-03-18T04:31:46;12.88;;;6.62;;
25127;SDS011;13107;51.304;6.866;2023-03-18T04:35:48;13.43;;;6.57;;
25127;SDS011;13107;51.304;6.866;2023-03-18T04:39:50;14.57;;;7.28;;
25127;SDS011;13107;51.304;6.866;2023-03-18T04:43:51;10.45;;;6.22;;
25127;SDS011;13107;51.304;6.866;2023-03-18T04:47:53;11.27;;;6.90;;
25127;SDS011;13107;51.304;6.866;2023-03-18T04:51:55;11.02;;;6.50;;
25127;SDS011;13107;51.304;6.866;2023-03-18T04:55:56;11.48;;;6.65;;
25127;SDS011;13107;51.304;6.866;2023-03-18T04:59:58;8.93;;;7.00;;
25127;SDS011;13107;51.304;6.866;2023-03-18T05:04:00;10.38;;;6.57;;
25127;SDS011;13107;51.304;6.866;2023-03-18T05:08:02;10.48;;;6.10;;
25127;SDS011;13107;51.304;6.866;2023-03-18T05:12:03;9.55;;;6.85;;
25127;SDS011;13107;51.304;6.866;2023-03-18T05:16:05;12.25;;;7.12;;
25127;SDS011;13107;51.304;6.866;2023-03-18T05:20:09;10.65;;;6.30;;
25127;SDS011;13107;51.304;6.866;2023-03-18T05:24:11;15.15;;;7.00;;
25127;SDS011;13107;51.304;6.866;2023-03-18T05:28:13;13.27;;;5.80;;
25127;SDS011;13107;51.304;6.866;2023-03-18T05:32:14;17.50;;;6.53;;
25127;SDS011;13107;51.304;6.866;2023-03-18T05:36:16;8.13;;;5.97;;
25127;SDS011;13107;51.304;6.866;2023-03-18T05:40:19;12.00;;;7.30;;
25127;SDS011;13107;51.304;6.866;2023-03-18T05:44:21;13.10;;;7.03;;
25127;SDS011;13107;51.304;6.866;2023-03-18T05:48:23;11.40;;;7.00;;
25127;SDS011;13107;51.304;6.866;2023-03-18T05:52:25;10.95;;;6.30;;
25127;SDS011;13107;51.304;6.866;2023-03-18T05:56:28;14.27;;;6.82;;
25127;SDS011;13107;51.304;6.866;2023-03-18T06:00:31;13.95;;;6.87;;
25127;SDS011;13107;51.304;6.866;2023-03-18T06:04:33;11.25;;;6.05;;
25127;SDS011;13107;51.304;6.866;2023-03-18T06:08:34;9.60;;;5.75;;
25127;SDS011;13107;51.304;6.866;2023-03-18T06:12:36;8.88;;;5.57;;
25127;SDS011;13107;51.304;6.866;2023-03-18T06:16:39;7.45;;;5.15;;
25127;SDS011;13107;51.304;6.866;2023-03-18T06:20:42;9.77;;;5.18;;
25127;SDS011;13107;51.304;6.866;2023-03-18T06:24:43;7.82;;;4.95;;
25127;SDS011;13107;51.304;6.866;2023-03-18T06:28:48;10.10;;;5.25;;
25127;SDS011;13107;51.304;6.866;2023-03-18T06:32:51;9.65;;;5.55;;
25127;SDS011;13107;51.304;6.866;2023-03-18T06:36:53;9.82;;;5.35;;
25127;SDS011;13107;51.304;6.866;2023-03-18T06:40:55;11.60;;;5.60;;
25127;SDS011;13107;51.304;6.866;2023-03-18T06:44:56;8.88;;;6.05;;
25127;SDS011;13107;51.304;6.866;2023-03-18T06:48:58;7.87;;;5.07;;
25127;SDS011;13107;51.304;6.866;2023-03-18T06:53:00;8.38;;;5.10;;
25127;SDS011;13107;51.304;6.866;2023-03-18T06:57:01;11.48;;;5.45;;
25127;SDS011;13107;51.304;6.866;2023-03-18T07:01:03;9.90;;;5.37;;
25127;SDS011;13107;51.304;6.866;2023-03-18T07:05:05;8.63;;;5.75;;
25127;SDS011;13107;51.304;6.866;2023-03-18T07:09:08;8.85;;;5.30;;
25127;SDS011;13107;51.304;6.866;2023-03-18T07:13:11;11.05;;;6.40;;
25127;SDS011;13107;51.304;6.866;2023-03-18T07:17:13;9.75;;;5.60;;
25127;SDS011;13107;51.304;6.866;2023-03-18T07:21:15;9.30;;;6.20;;
25127;SDS011;13107;51.304;6.866;2023-03-18T07:25:17;8.15;;;5.90;;
25127;SDS011;13107;51.304;6.866;2023-03-18T07:29:22;10.18;;;5.70;;
25127;SDS011;13107;51.304;6.866;2023-03-18T07:33:24;7.70;;;5.43;;
25127;SDS011;13107;51.304;6.866;2023-03-18T07:37:26;9.32;;;5.57;;
25127;SDS011;13107;51.304;6.866;2023-03-18T07:41:28;8.57;;;5.07;;
25127;SDS011;13107;51.304;6.866;2023-03-18T07:45:29;9.25;;;5.00;;
25127;SDS011;13107;51.304;6.866;2023-03-18T07:49:31;7.55;;;4.35;;
25127;SDS011;13107;51.304;6.866;2023-03-18T07:53:33;8.75;;;4.12;;
25127;SDS011;13107;51.304;6.866;2023-03-18T07:57:35;5.07;;;3.97;;
25127;SDS011;13107;51.304;6.866;2023-03-18T08:01:38;7.93;;;4.07;;
25127;SDS011;13107;51.304;6.866;2023-03-18T08:05:40;8.35;;;4.45;;
25127;SDS011;13107;51.304;6.866;2023-03-18T08:09:41;6.87;;;3.62;;
25127;SDS011;13107;51.304;6.866;2023-03-18T08:13:43;7.90;;;3.87;;
25127;SDS011;13107;51.304;6.866;2023-03-18T08:17:45;7.35;;;3.15;;
25127;SDS011;13107;51.304;6.866;2023-03-18T08:21:47;6.30;;;3.65;;
25127;SDS011;13107;51.304;6.866;2023-03-18T08:25:49;7.25;;;3.15;;
25127;SDS011;13107;51.304;6.866;2023-03-18T08:29:51;6.22;;;3.08;;
25127;SDS011;13107;51.304;6.866;2023-03-18T08:33:52;7.22;;;3.42;;
25127;SDS011;13107;51.304;6.866;2023-03-18T08:37:56;7.53;;;3.30;;
25127;SDS011;13107;51.304;6.866;2023-03-18T08:41:58;8.93;;;2.87;;
25127;SDS011;13107;51.304;6.866;2023-03-18T08:45:59;7.82;;;2.90;;
25127;SDS011;13107;51.304;6.866;2023-03-18T08:50:01;3.85;;;2.87;;
25127;SDS011;13107;51.304;6.866;2023-03-18T08:54:03;6.22;;;2.95;;
25127;SDS011;13107;51.304;6.866;2023-03-18T08:58:05;7.20;;;2.65;;
25127;SDS011;13107;51.304;6.866;2023-03-18T09:02:10;6.40;;;3.20;;
25127;SDS011;13107;51.304;6.866;2023-03-18T09:06:16;7.03;;;3.35;;
25127;SDS011;13107;51.304;6.866;2023-03-18T09:10:18;8.40;;;2.90;;
25127;SDS011;13107;51.304;6.866;2023-03-18T09:14:20;6.32;;;3.25;;
25127;SDS011;13107;51.304;6.866;2023-03-18T09:18:22;3.97;;;2.50;;
25127;SDS011;13107;51.304;6.866;2023-03-18T09:22:24;5.40;;;2.75;;
25127;SDS011;13107;51.304;6.866;2023-03-18T09:26:26;7.45;;;2.60;;
25127;SDS011;13107;51.304;6.866;2023-03-18T09:30:28;6.55;;;2.30;;
25127;SDS011;13107;51.304;6.866;2023-03-18T09:34:30;4.55;;;2.42;;
25127;SDS011;13107;51.304;6.866;2023-03-18T09:38:32;4.82;;;2.20;;
25127;SDS011;13107;51.304;6.866;2023-03-18T09:42:45;2.72;;;1.80;;
25127;SDS011;13107;51.304;6.866;2023-03-18T09:55:41;5.53;;;2.10;;
25127;SDS011;13107;51.304;6.866;2023-03-18T09:59:49;3.03;;;1.48;;
25127;SDS011;13107;51.304;6.866;2023-03-18T10:04:14;3.40;;;1.60;;
25127;SDS011;13107;51.304;6.866;2023-03-18T10:12:41;3.75;;;1.60;;
25127;SDS011;13107;51.304;6.866;2023-03-18T10:16:54;3.20;;;1.40;;
25127;SDS011;13107;51.304;6.866;2023-03-18T10:25:20;2.15;;;1.25;;
25127;SDS011;13107;51.304;6.866;2023-03-18T10:33:45;3.40;;;1.60;;
25127;SDS011;13107;51.304;6.866;2023-03-18T10:38:01;4.57;;;1.80;;
25127;SDS011;13107;51.304;6.866;2023-03-18T10:46:42;3.08;;;1.33;;
25127;SDS011;13107;51.304;6.866;2023-03-18T10:55:16;3.58;;;1.60;;
25127;SDS011;13107;51.304;6.866;2023-03-18T10:59:21;2.83;;;1.42;;
25127;SDS011;13107;51.304;6.866;2023-03-18T11:03:27;3.28;;;1.20;;
25127;SDS011;13107;51.304;6.866;2023-03-18T11:07:36;2.40;;;1.37;;
25127;SDS011;13107;51.304;6.866;2023-03-18T11:12:11;3.85;;;1.27;;
25127;SDS011;13107;51.304;6.866;2023-03-18T11:16:25;3.70;;;1.48;;
25127;SDS011;13107;51.304;6.866;2023-03-18T11:20:38;2.00;;;1.02;;
25127;SDS011;13107;51.304;6.866;2023-03-18T11:25:01;2.78;;;1.30;;
25127;SDS011;13107;51.304;6.866;2023-03-18T11:29:10;3.67;;;1.48;;
25127;SDS011;13107;51.304;6.866;2023-03-18T11:33:23;2.33;;;1.45;;
25127;SDS011;13107;51.304;6.866;2023-03-18T11:37:31;1.48;;;1.17;;
25127;SDS011;13107;51.304;6.866;2023-03-18T11:41:33;2.45;;;1.45;;
25127;SDS011;13107;51.304;6.866;2023-03-18T11:45:45;3.25;;;1.25;;
25127;SDS011;13107;51.304;6.866;2023-03-18T11:49:50;3.65;;;1.00;;
25127;SDS011;13107;51.304;6.866;2023-03-18T11:54:14;6.15;;;1.50;;
25127;SDS011;13107;51.304;6.866;2023-03-18T11:58:56;2.45;;;1.02;;
25127;SDS011;13107;51.304;6.866;2023-03-18T12:03:38;2.55;;;1.35;;
25127;SDS011;13107;51.304;6.866;2023-03-18T12:08:12;5.20;;;1.20;;
25127;SDS011;13107;51.304;6.866;2023-03-18T12:16:55;3.17;;;1.33;;
25127;SDS011;13107;51.304;6.866;2023-03-18T12:26:11;3.67;;;1.33;;
25127;SDS011;13107;51.304;6.866;2023-03-18T12:47:58;2.72;;;1.67;;
25127;SDS011;13107;51.304;6.866;2023-03-18T12:52:19;4.55;;;1.75;;
25127;SDS011;13107;51.304;6.866;2023-03-18T12:56:27;3.70;;;1.58;;
25127;SDS011;13107;51.304;6.866;2023-03-18T13:00:32;2.60;;;1.48;;
25127;SDS011;13107;51.304;6.866;2023-03-18T13:04:40;3.40;;;1.75;;
25127;SDS011;13107;51.304;6.866;2023-03-18T13:09:03;2.97;;;1.45;;
25127;SDS011;13107;51.304;6.866;2023-03-18T13:13:15;3.12;;;1.48;;
25127;SDS011;13107;51.304;6.866;2023-03-18T13:17:21;5.00;;;1.80;;
25127;SDS011;13107;51.304;6.866;2023-03-18T13:21:34;4.50;;;1.67;;
25127;SDS011;13107;51.304;6.866;2023-03-18T13:26:01;3.72;;;1.62;;
25127;SDS011;13107;51.304;6.866;2023-03-18T13:30:31;4.25;;;1.60;;
25127;SDS011;13107;51.304;6.866;2023-03-18T13:35:28;3.10;;;1.50;;
25127;SDS011;13107;51.304;6.866;2023-03-18T13:39:46;2.87;;;1.40;;
25127;SDS011;13107;51.304;6.866;2023-03-18T13:44:00;3.70;;;1.02;;
25127;SDS011;13107;51.304;6.866;2023-03-18T13:48:11;3.50;;;1.17;;
25127;SDS011;13107;51.304;6.866;2023-03-18T13:52:32;5.00;;;1.40;;
25127;SDS011;13107;51.304;6.866;2023-03-18T14:04:54;2.35;;;1.35;;
25127;SDS011;13107;51.304;6.866;2023-03-18T14:09:20;3.37;;;1.60;;
25127;SDS011;13107;51.304;6.866;2023-03-18T14:13:26;2.95;;;1.65;;
25127;SDS011;13107;51.304;6.866;2023-03-18T14:17:29;4.37;;;1.30;;
25127;SDS011;13107;51.304;6.866;2023-03-18T14:21:52;11.75;;;2.95;;
25127;SDS011;13107;51.304;6.866;2023-03-18T14:30:56;3.22;;;1.35;;
25127;SDS011;13107;51.304;6.866;2023-03-18T14:34:32;4.05;;;1.50;;
25127;SDS011;13107;51.304;6.866;2023-03-18T14:38:40;3.92;;;1.70;;
25127;SDS011;13107;51.304;6.866;2023-03-18T14:43:05;3.40;;;1.87;;
25127;SDS011;13107;51.304;6.866;2023-03-18T14:51:39;4.47;;;1.95;;
25127;SDS011;13107;51.304;6.866;2023-03-18T14:55:41;4.40;;;2.47;;
25127;SDS011;13107;51.304;6.866;2023-03-18T14:59:45;4.47;;;2.30;;
25127;SDS011;13107;51.304;6.866;2023-03-18T15:03:46;5.75;;;2.47;;
25127;SDS011;13107;51.304;6.866;2023-03-18T15:07:50;5.68;;;2.70;;
25127;SDS011;13107;51.304;6.866;2023-03-18T15:11:53;6.87;;;3.10;;
25127;SDS011;13107;51.304;6.866;2023-03-18T15:15:55;3.55;;;2.10;;
25127;SDS011;13107;51.304;6.866;2023-03-18T15:19:57;3.40;;;2.20;;
25127;SDS011;13107;51.304;6.866;2023-03-18T15:24:01;4.03;;;2.03;;
25127;SDS011;13107;51.304;6.866;2023-03-18T15:28:05;4.22;;;2.53;;
25127;SDS011;13107;51.304;6.866;2023-03-18T15:36:16;7.57;;;2.60;;
25127;SDS011;13107;51.304;6.866;2023-03-18T15:44:23;4.78;;;2.35;;
25127;SDS011;13107;51.304;6.866;2023-03-18T15:48:33;7.12;;;2.97;;
25127;SDS011;13107;51.304;6.866;2023-03-18T15:52:40;3.45;;;2.10;;
25127;SDS011;13107;51.304;6.866;2023-03-18T15:56:44;6.40;;;2.20;;
25127;SDS011;13107;51.304;6.866;2023-03-18T16:00:48;5.10;;;2.10;;
25127;SDS011;13107;51.304;6.866;2023-03-18T16:04:51;2.80;;;1.77;;
25127;SDS011;13107;51.304;6.866;2023-03-18T16:08:53;5.47;;;2.37;;
25127;SDS011;13107;51.304;6.866;2023-03-18T16:12:56;4.45;;;2.17;;
25127;SDS011;13107;51.304;6.866;2023-03-18T16:17:01;5.65;;;2.08;;
25127;SDS011;13107;51.304;6.866;2023-03-18T16:21:04;2.97;;;1.60;;
25127;SDS011;13107;51.304;6.866;2023-03-18T16:25:06;4.82;;;2.00;;
25127;SDS011;13107;51.304;6.866;2023-03-18T16:29:13;9.05;;;4.87;;
25127;SDS011;13107;51.304;6.866;2023-03-18T16:33:22;5.60;;;3.05;;
25127;SDS011;13107;51.304;6.866;2023-03-18T16:37:25;4.35;;;2.33;;
25127;SDS011;13107;51.304;6.866;2023-03-18T16:41:27;4.40;;;2.50;;
25127;SDS011;13107;51.304;6.866;2023-03-18T16:45:30;3.67;;;2.00;;
25127;SDS011;13107;51.304;6.866;2023-03-18T16:49:34;3.70;;;2.45;;
25127;SDS011;13107;51.304;6.866;2023-03-18T16:53:37;5.10;;;2.75;;
25127;SDS011;13107;51.304;6.866;2023-03-18T16:57:40;4.97;;;3.12;;
25127;SDS011;13107;51.304;6.866;2023-03-18T17:01:44;6.72;;;3.03;;
25127;SDS011;13107;51.304;6.866;2023-03-18T17:05:47;4.03;;;2.35;;
25127;SDS011;13107;51.304;6.866;2023-03-18T17:09:50;4.15;;;2.75;;
25127;SDS011;13107;51.304;6.866;2023-03-18T17:13:53;6.82;;;3.65;;
25127;SDS011;13107;51.304;6.866;2023-03-18T17:17:56;7.45;;;3.20;;
25127;SDS011;13107;51.304;6.866;2023-03-18T17:22:00;6.00;;;2.87;;
25127;SDS011;13107;51.304;6.866;2023-03-18T17:26:02;5.70;;;2.67;;
25127;SDS011;13107;51.304;6.866;2023-03-18T17:30:28;5.45;;;3.10;;
25127;SDS011;13107;51.304;6.866;2023-03-18T17:34:38;8.40;;;4.07;;
25127;SDS011;13107;51.304;6.866;2023-03-18T17:38:39;7.30;;;3.58;;
25127;SDS011;13107;51.304;6.866;2023-03-18T17:42:41;7.03;;;4.18;;
25127;SDS011;13107;51.304;6.866;2023-03-18T17:46:44;11.25;;;6.82;;
25127;SDS011;13107;51.304;6.866;2023-03-18T17:50:48;13.05;;;7.20;;
25127;SDS011;13107;51.304;6.866;2023-03-18T17:54:51;8.43;;;4.55;;
25127;SDS011;13107;51.304;6.866;2023-03-18T17:58:54;10.38;;;4.15;;
25127;SDS011;13107;51.304;6.866;2023-03-18T18:02:56;8.35;;;3.30;;
25127;SDS011;13107;51.304;6.866;2023-03-18T18:07:02;5.25;;;2.78;;
25127;SDS011;13107;51.304;6.866;2023-03-18T18:15:28;8.90;;;3.97;;
25127;SDS011;13107;51.304;6.866;2023-03-18T18:19:30;6.97;;;3.67;;
25127;SDS011;13107;51.304;6.866;2023-03-18T18:23:33;8.43;;;4.00;;
25127;SDS011;13107;51.304;6.866;2023-03-18T18:27:36;11.75;;;6.00;;
25127;SDS011;13107;51.304;6.866;2023-03-18T18:31:38;15.25;;;8.07;;
25127;SDS011;13107;51.304;6.866;2023-03-18T18:35:40;12.73;;;6.97;;
25127;SDS011;13107;51.304;6.866;2023-03-18T18:39:42;10.32;;;6.47;;
25127;SDS011;13107;51.304;6.866;2023-03-18T18:43:44;9.18;;;5.03;;
25127;SDS011;13107;51.304;6.866;2023-03-18T18:47:46;6.43;;;3.85;;
25127;SDS011;13107;51.304;6.866;2023-03-18T18:51:51;6.45;;;3.42;;
25127;SDS011;13107;51.304;6.866;2023-03-18T18:55:55;9.00;;;3.17;;
25127;SDS011;13107;51.304;6.866;2023-03-18T19:00:02;7.10;;;3.37;;
25127;SDS011;13107;51.304;6.866;2023-03-18T19:08:24;9.20;;;4.40;;
25127;SDS011;13107;51.304;6.866;2023-03-18T19:12:29;8.75;;;3.62;;
25127;SDS011;13107;51.304;6.866;2023-03-18T19:16:31;4.72;;;3.28;;
25127;SDS011;13107;51.304;6.866;2023-03-18T19:20:34;10.82;;;3.67;;
25127;SDS011;13107;51.304;6.866;2023-03-18T19:24:35;6.53;;;3.45;;
25127;SDS011;13107;51.304;6.866;2023-03-18T19:28:39;11.77;;;3.85;;
25127;SDS011;13107;51.304;6.866;2023-03-18T19:32:58;6.50;;;3.50;;
25127;SDS011;13107;51.304;6.866;2023-03-18T19:37:02;10.23;;;3.87;;
25127;SDS011;13107;51.304;6.866;2023-03-18T19:41:05;4.78;;;3.15;;
25127;SDS011;13107;51.304;6.866;2023-03-18T19:45:10;6.87;;;3.35;;
25127;SDS011;13107;51.304;6.866;2023-03-18T19:49:22;5.90;;;3.08;;
25127;SDS011;13107;51.304;6.866;2023-03-18T19:53:30;6.43;;;3.47;;
25127;SDS011;13107;51.304;6.866;2023-03-18T19:57:32;7.55;;;4.62;;
25127;SDS011;13107;51.304;6.866;2023-03-18T20:01:34;9.63;;;5.10;;
25127;SDS011;13107;51.304;6.866;2023-03-18T20:05:36;9.32;;;4.57;;
25127;SDS011;13107;51.304;6.866;2023-03-18T20:09:38;14.05;;;4.32;;
25127;SDS011;13107;51.304;6.866;2023-03-18T20:13:39;12.40;;;5.90;;
25127;SDS011;13107;51.304;6.866;2023-03-18T20:17:49;10.93;;;4.18;;
25127;SDS011;13107;51.304;6.866;2023-03-18T20:21:51;7.50;;;4.00;;
25127;SDS011;13107;51.304;6.866;2023-03-18T20:25:54;10.32;;;4.10;;
25127;SDS011;13107;51.304;6.866;2023-03-18T20:29:56;9.20;;;4.00;;
25127;SDS011;13107;51.304;6.866;2023-03-18T20:33:58;8.20;;;3.45;;
25127;SDS011;13107;51.304;6.866;2023-03-18T20:42:32;7.18;;;3.97;;
25127;SDS011;13107;51.304;6.866;2023-03-18T20:46:34;7.80;;;3.85;;
25127;SDS011;13107;51.304;6.866;2023-03-18T20:50:36;7.05;;;3.78;;
25127;SDS011;13107;51.304;6.866;2023-03-18T20:54:38;6.55;;;3.75;;
25127;SDS011;13107;51.304;6.866;2023-03-18T20:58:40;7.53;;;4.10;;
25127;SDS011;13107;51.304;6.866;2023-03-18T21:02:42;5.25;;;3.37;;
25127;SDS011;13107;51.304;6.866;2023-03-18T21:06:44;5.90;;;3.42;;
25127;SDS011;13107;51.304;6.866;2023-03-18T21:10:46;8.95;;;3.65;;
25127;SDS011;13107;51.304;6.866;2023-03-18T21:14:48;6.45;;;3.33;;
25127;SDS011;13107;51.304;6.866;2023-03-18T21:18:50;8.77;;;3.58;;
25127;SDS011;13107;51.304;6.866;2023-03-18T21:22:52;7.97;;;3.22;;
25127;SDS011;13107;51.304;6.866;2023-03-18T21:26:54;8.93;;;3.42;;
25127;SDS011;13107;51.304;6.866;2023-03-18T21:31:10;10.18;;;3.87;;
25127;SDS011;13107;51.304;6.866;2023-03-18T21:35:25;7.75;;;3.40;;
25127;SDS011;13107;51.304;6.866;2023-03-18T21:39:27;8.90;;;3.53;;
25127;SDS011;13107;51.304;6.866;2023-03-18T21:43:30;5.50;;;3.20;;
25127;SDS011;13107;51.304;6.866;2023-03-18T21:47:33;6.12;;;3.28;;
25127;SDS011;13107;51.304;6.866;2023-03-18T21:51:36;10.25;;;3.92;;
25127;SDS011;13107;51.304;6.866;2023-03-18T21:55:40;9.95;;;3.80;;
25127;SDS011;13107;51.304;6.866;2023-03-18T21:59:42;6.18;;;3.05;;
25127;SDS011;13107;51.304;6.866;2023-03-18T22:03:44;7.55;;;3.40;;
25127;SDS011;13107;51.304;6.866;2023-03-18T22:07:47;7.03;;;4.47;;
25127;SDS011;13107;51.304;6.866;2023-03-18T22:11:50;9.20;;;4.70;;
25127;SDS011;13107;51.304;6.866;2023-03-18T22:15:53;12.40;;;4.55;;
25127;SDS011;13107;51.304;6.866;2023-03-18T22:19:56;12.48;;;4.47;;
25127;SDS011;13107;51.304;6.866;2023-03-18T22:23:59;5.68;;;3.47;;
25127;SDS011;13107;51.304;6.866;2023-03-18T22:28:01;8.32;;;4.00;;
25127;SDS011;13107;51.304;6.866;2023-03-18T22:32:02;8.25;;;4.15;;
25127;SDS011;13107;51.304;6.866;2023-03-18T22:36:04;11.82;;;4.43;;
25127;SDS011;13107;51.304;6.866;2023-03-18T22:40:08;11.35;;;4.45;;
25127;SDS011;13107;51.304;6.866;2023-03-18T22:44:19;12.37;;;4.68;;
25127;SDS011;13107;51.304;6.866;2023-03-18T22:48:22;12.50;;;4.40;;
25127;SDS011;13107;51.304;6.866;2023-03-18T22:52:25;7.55;;;4.20;;
25127;SDS011;13107;51.304;6.866;2023-03-18T22:56:29;9.40;;;4.28;;
25127;SDS011;13107;51.304;6.866;2023-03-18T23:00:36;12.68;;;4.20;;
25127;SDS011;13107;51.304;6.866;2023-03-18T23:04:42;10.15;;;3.70;;
25127;SDS011;13107;51.304;6.866;2023-03-18T23:08:44;6.70;;;3.67;;
25127;SDS011;13107;51.304;6.866;2023-03-18T23:12:46;8.60;;;4.30;;
25127;SDS011;13107;51.304;6.866;2023-03-18T23:16:48;7.15;;;3.50;;
25127;SDS011;13107;51.304;6.866;2023-03-18T23:20:50;9.88;;;3.70;;
25127;SDS011;13107;51.304;6.866;2023-03-18T23:24:53;6.55;;;3.83;;
25127;SDS011;13107;51.304;6.866;2023-03-18T23:28:55;11.82;;;3.97;;
25127;SDS011;13107;51.304;6.866;2023-03-18T23:32:56;7.15;;;3.72;;
25127;SDS011;13107;51.304;6.866;2023-03-18T23:36:58;6.60;;;3.85;;
25127;SDS011;13107;51.304;6.866;2023-03-18T23:41:00;7.00;;;3.50;;
25127;SDS011;13107;51.304;6.866;2023-03-18T23:45:01;9.40;;;3.90;;
25127;SDS011;13107;51.304;6.866;2023-03-18T23:49:05;10.27;;;3.47;;
25127;SDS011;13107;51.304;6.866;2023-03-18T23:53:07;8.65;;;3.60;;
25127;SDS011;13107;51.304;6.866;2023-03-18T23:57:09;8.75;;;3.47;;
